sensor_id;sensor_type;location;lat;lon;timestamp;temperature;humidity
22185;DHT22;11258;52.516;13.318;2023-03-20T00:01:24;12.60;99.90
22185;DHT22;11258;52.516;13.318;2023-03-20T00:03:51;12.60;99.90
22185;DHT22;11258;52.516;13.318;2023-03-20T00:06:19;12.60;99.90
22185;DHT22;11258;52.516;13.318;2023-03-20T00:08:46;12.50;99.90
22185;DHT22;11258;52.516;13.318;2023-03-20T00:11:32;12.50;99.90
22185;DHT22;11258;52.516;13.318;2023-03-20T00:13:59;12.40;99.90
22185;DHT22;11258;52.516;13.318;2023-03-20T00:16:30;12.50;99.90
22185;DHT22;11258;52.516;13.318;2023-03-20T00:18:56;12.40;99.90
22185;DHT22;11258;52.516;13.318;2023-03-20T00:21:23;12.40;99.90
22185;DHT22;11258;52.516;13.318;2023-03-20T00:23:48;12.30;99.90
22185;DHT22;11258;52.516;13.318;2023-03-20T00:26:16;12.20;99.90
22185;DHT22;11258;52.516;13.318;2023-03-20T00:28:46;12.20;99.90
22185;DHT22;11258;52.516;13.318;2023-03-20T00:33:52;12.20;99.90
22185;DHT22;11258;52.516;13.318;2023-03-20T00:36:19;12.10;99.90
22185;DHT22;11258;52.516;13.318;2023-03-20T00:38:45;12.10;99.90
22185;DHT22;11258;52.516;13.318;2023-03-20T00:41:24;12.00;99.90
22185;DHT22;11258;52.516;13.318;2023-03-20T00:43:55;12.00;99.90
22185;DHT22;11258;52.516;13.318;2023-03-20T00:46:23;12.00;99.90
22185;DHT22;11258;52.516;13.318;2023-03-20T00:48:49;11.90;99.90
22185;DHT22;11258;52.516;13.318;2023-03-20T00:51:15;11.90;99.90
22185;DHT22;11258;52.516;13.318;2023-03-20T00:53:41;11.90;99.90
22185;DHT22;11258;52.516;13.318;2023-03-20T00:58:50;11.90;99.90
22185;DHT22;11258;52.516;13.318;2023-03-20T01:01:15;11.80;99.90
22185;DHT22;11258;52.516;13.318;2023-03-20T01:03:42;11.80;99.90
22185;DHT22;11258;52.516;13.318;2023-03-20T01:06:11;11.80;99.90
22185;DHT22;11258;52.516;13.318;2023-03-20T01:08:37;11.70;99.90
22185;DHT22;11258;52.516;13.318;2023-03-20T01:11:03;11.70;99.90
22185;DHT22;11258;52.516;13.318;2023-03-20T01:13:29;11.70;99.90
22185;DHT22;11258;52.516;13.318;2023-03-20T01:15:56;11.70;99.90
22185;DHT22;11258;52.516;13.318;2023-03-20T01:18:23;11.70;99.90
22185;DHT22;11258;52.516;13.318;2023-03-20T01:20:50;11.70;99.90
22185;DHT22;11258;52.516;13.318;2023-03-20T01:23:20;11.60;99.90
22185;DHT22;11258;52.516;13.318;2023-03-20T01:25:47;11.60;99.90
22185;DHT22;11258;52.516;13.318;2023-03-20T01:28:23;11.60;99.90
22185;DHT22;11258;52.516;13.318;2023-03-20T01:30:49;11.60;99.90
22185;DHT22;11258;52.516;13.318;2023-03-20T01:33:20;11.60;99.90
22185;DHT22;11258;52.516;13.318;2023-03-20T01:35:48;11.70;99.90
22185;DHT22;11258;52.516;13.318;2023-03-20T01:38:22;11.70;99.90
22185;DHT22;11258;52.516;13.318;2023-03-20T01:41:02;11.70;99.90
22185;DHT22;11258;52.516;13.318;2023-03-20T01:43:29;11.60;99.90
22185;DHT22;11258;52.516;13.318;2023-03-20T01:51:31;11.60;99.90
22185;DHT22;11258;52.516;13.318;2023-03-20T01:56:28;11.60;99.90
22185;DHT22;11258;52.516;13.318;2023-03-20T01:59:06;11.70;99.90
22185;DHT22;11258;52.516;13.318;2023-03-20T02:01:33;11.70;99.90
22185;DHT22;11258;52.516;13.318;2023-03-20T02:04:01;11.70;99.90
22185;DHT22;11258;52.516;13.318;2023-03-20T02:06:27;11.80;99.90
22185;DHT22;11258;52.516;13.318;2023-03-20T02:08:53;11.70;99.90
22185;DHT22;11258;52.516;13.318;2023-03-20T02:11:21;11.70;99.90
22185;DHT22;11258;52.516;13.318;2023-03-20T02:13:54;11.70;99.90
22185;DHT22;11258;52.516;13.318;2023-03-20T02:16:21;11.70;99.90
22185;DHT22;11258;52.516;13.318;2023-03-20T02:18:48;11.70;99.90
22185;DHT22;11258;52.516;13.318;2023-03-20T02:29:44;11.70;99.90
22185;DHT22;11258;52.516;13.318;2023-03-20T02:43:16;11.50;99.90
22185;DHT22;11258;52.516;13.318;2023-03-20T02:45:58;11.60;99.90
22185;DHT22;11258;52.516;13.318;2023-03-20T02:51:16;11.50;99.90
22185;DHT22;11258;52.516;13.318;2023-03-20T02:53:55;11.50;99.90
22185;DHT22;11258;52.516;13.318;2023-03-20T02:59:31;11.50;99.90
22185;DHT22;11258;52.516;13.318;2023-03-20T03:02:07;11.60;99.90
22185;DHT22;11258;52.516;13.318;2023-03-20T03:04:38;11.60;99.90
22185;DHT22;11258;52.516;13.318;2023-03-20T03:07:07;11.60;99.90
22185;DHT22;11258;52.516;13.318;2023-03-20T03:09:45;11.70;99.90
22185;DHT22;11258;52.516;13.318;2023-03-20T03:12:37;11.60;99.90
22185;DHT22;11258;52.516;13.318;2023-03-20T03:15:09;11.60;99.90
22185;DHT22;11258;52.516;13.318;2023-03-20T03:17:39;11.60;99.90
22185;DHT22;11258;52.516;13.318;2023-03-20T03:20:28;11.60;99.90
22185;DHT22;11258;52.516;13.318;2023-03-20T03:22:54;11.60;99.90
22185;DHT22;11258;52.516;13.318;2023-03-20T03:25:23;11.60;99.90
22185;DHT22;11258;52.516;13.318;2023-03-20T03:30:35;11.60;99.90
22185;DHT22;11258;52.516;13.318;2023-03-20T03:35:30;11.50;99.90
22185;DHT22;11258;52.516;13.318;2023-03-20T03:38:22;11.50;99.90
22185;DHT22;11258;52.516;13.318;2023-03-20T03:43:50;11.40;99.90
22185;DHT22;11258;52.516;13.318;2023-03-20T03:46:24;11.40;99.90
22185;DHT22;11258;52.516;13.318;2023-03-20T03:48:54;11.40;99.90
22185;DHT22;11258;52.516;13.318;2023-03-20T03:51:28;11.30;99.90
22185;DHT22;11258;52.516;13.318;2023-03-20T03:54:01;11.30;99.90
22185;DHT22;11258;52.516;13.318;2023-03-20T03:56:30;11.30;99.90
22185;DHT22;11258;52.516;13.318;2023-03-20T03:59:01;11.20;99.90
22185;DHT22;11258;52.516;13.318;2023-03-20T04:01:30;11.20;99.90
22185;DHT22;11258;52.516;13.318;2023-03-20T04:04:00;11.20;99.90
22185;DHT22;11258;52.516;13.318;2023-03-20T04:06:27;11.30;99.90
22185;DHT22;11258;52.516;13.318;2023-03-20T04:08:53;11.30;99.90
22185;DHT22;11258;52.516;13.318;2023-03-20T04:11:21;11.30;99.90
22185;DHT22;11258;52.516;13.318;2023-03-20T04:13:49;11.20;99.90
22185;DHT22;11258;52.516;13.318;2023-03-20T04:16:16;11.20;99.90
22185;DHT22;11258;52.516;13.318;2023-03-20T04:18:42;11.20;99.90
22185;DHT22;11258;52.516;13.318;2023-03-20T04:21:09;11.20;99.90
22185;DHT22;11258;52.516;13.318;2023-03-20T04:23:35;11.20;99.90
22185;DHT22;11258;52.516;13.318;2023-03-20T04:26:02;11.20;99.90
22185;DHT22;11258;52.516;13.318;2023-03-20T04:28:28;11.20;99.90
22185;DHT22;11258;52.516;13.318;2023-03-20T04:30:55;11.20;99.90
22185;DHT22;11258;52.516;13.318;2023-03-20T04:33:22;11.20;99.90
22185;DHT22;11258;52.516;13.318;2023-03-20T04:35:48;11.20;99.90
22185;DHT22;11258;52.516;13.318;2023-03-20T04:38:13;11.20;99.90
22185;DHT22;11258;52.516;13.318;2023-03-20T04:40:39;11.20;99.90
22185;DHT22;11258;52.516;13.318;2023-03-20T04:43:05;11.20;99.90
22185;DHT22;11258;52.516;13.318;2023-03-20T04:45:30;11.20;99.90
22185;DHT22;11258;52.516;13.318;2023-03-20T04:47:56;11.30;99.90
22185;DHT22;11258;52.516;13.318;2023-03-20T04:50:22;11.30;99.90
22185;DHT22;11258;52.516;13.318;2023-03-20T04:52:48;11.20;99.90
22185;DHT22;11258;52.516;13.318;2023-03-20T04:55:14;11.30;99.90
22185;DHT22;11258;52.516;13.318;2023-03-20T04:57:40;11.30;99.90
22185;DHT22;11258;52.516;13.318;2023-03-20T05:00:06;11.30;99.90
22185;DHT22;11258;52.516;13.318;2023-03-20T05:02:32;11.30;99.90
22185;DHT22;11258;52.516;13.318;2023-03-20T05:04:58;11.20;99.90
22185;DHT22;11258;52.516;13.318;2023-03-20T05:07:23;11.20;99.90
22185;DHT22;11258;52.516;13.318;2023-03-20T05:09:49;11.20;99.90
22185;DHT22;11258;52.516;13.318;2023-03-20T05:12:15;11.20;99.90
22185;DHT22;11258;52.516;13.318;2023-03-20T05:14:41;11.20;99.90
22185;DHT22;11258;52.516;13.318;2023-03-20T05:17:06;11.20;99.90
22185;DHT22;11258;52.516;13.318;2023-03-20T05:19:32;11.20;99.90
22185;DHT22;11258;52.516;13.318;2023-03-20T05:21:58;11.20;99.90
22185;DHT22;11258;52.516;13.318;2023-03-20T05:24:23;11.20;99.90
22185;DHT22;11258;52.516;13.318;2023-03-20T05:26:49;11.20;99.90
22185;DHT22;11258;52.516;13.318;2023-03-20T05:29:15;11.20;99.90
22185;DHT22;11258;52.516;13.318;2023-03-20T05:31:41;11.10;99.90
22185;DHT22;11258;52.516;13.318;2023-03-20T05:34:06;11.10;99.90
22185;DHT22;11258;52.516;13.318;2023-03-20T05:36:32;11.20;99.90
22185;DHT22;11258;52.516;13.318;2023-03-20T05:38:58;11.20;99.90
22185;DHT22;11258;52.516;13.318;2023-03-20T05:41:23;11.20;99.90
22185;DHT22;11258;52.516;13.318;2023-03-20T05:43:49;11.20;99.90
22185;DHT22;11258;52.516;13.318;2023-03-20T05:46:14;11.20;99.90
22185;DHT22;11258;52.516;13.318;2023-03-20T05:48:40;11.20;99.90
22185;DHT22;11258;52.516;13.318;2023-03-20T05:51:06;11.10;99.90
22185;DHT22;11258;52.516;13.318;2023-03-20T05:53:32;11.10;99.90
22185;DHT22;11258;52.516;13.318;2023-03-20T05:55:57;11.10;99.90
22185;DHT22;11258;52.516;13.318;2023-03-20T05:58:23;11.10;99.90
22185;DHT22;11258;52.516;13.318;2023-03-20T06:00:49;11.10;99.90
22185;DHT22;11258;52.516;13.318;2023-03-20T06:03:14;11.10;99.90
22185;DHT22;11258;52.516;13.318;2023-03-20T06:05:40;11.10;99.90
22185;DHT22;11258;52.516;13.318;2023-03-20T06:08:06;11.20;99.90
22185;DHT22;11258;52.516;13.318;2023-03-20T06:10:32;11.20;99.90
22185;DHT22;11258;52.516;13.318;2023-03-20T06:12:58;11.10;99.90
22185;DHT22;11258;52.516;13.318;2023-03-20T06:15:28;11.10;99.90
22185;DHT22;11258;52.516;13.318;2023-03-20T06:17:55;11.10;99.90
22185;DHT22;11258;52.516;13.318;2023-03-20T06:20:20;11.00;99.90
22185;DHT22;11258;52.516;13.318;2023-03-20T06:22:46;11.00;99.90
22185;DHT22;11258;52.516;13.318;2023-03-20T06:25:12;11.00;99.90
22185;DHT22;11258;52.516;13.318;2023-03-20T06:27:38;10.90;99.90
22185;DHT22;11258;52.516;13.318;2023-03-20T06:30:04;10.90;99.90
22185;DHT22;11258;52.516;13.318;2023-03-20T06:32:31;10.80;99.90
22185;DHT22;11258;52.516;13.318;2023-03-20T06:34:57;10.80;99.90
22185;DHT22;11258;52.516;13.318;2023-03-20T06:37:22;10.80;99.90
22185;DHT22;11258;52.516;13.318;2023-03-20T06:39:48;10.80;99.90
22185;DHT22;11258;52.516;13.318;2023-03-20T06:42:14;10.80;99.90
22185;DHT22;11258;52.516;13.318;2023-03-20T06:44:40;10.60;99.90
22185;DHT22;11258;52.516;13.318;2023-03-20T06:47:05;10.60;99.90
22185;DHT22;11258;52.516;13.318;2023-03-20T06:49:31;10.60;99.90
22185;DHT22;11258;52.516;13.318;2023-03-20T06:51:57;10.60;99.90
22185;DHT22;11258;52.516;13.318;2023-03-20T06:54:24;10.60;99.90
22185;DHT22;11258;52.516;13.318;2023-03-20T06:56:50;10.70;99.90
22185;DHT22;11258;52.516;13.318;2023-03-20T06:59:15;10.70;99.90
22185;DHT22;11258;52.516;13.318;2023-03-20T07:01:42;10.70;99.90
22185;DHT22;11258;52.516;13.318;2023-03-20T07:04:07;10.80;99.90
22185;DHT22;11258;52.516;13.318;2023-03-20T07:06:33;10.70;99.90
22185;DHT22;11258;52.516;13.318;2023-03-20T07:08:59;10.70;99.90
22185;DHT22;11258;52.516;13.318;2023-03-20T07:11:25;10.70;99.90
22185;DHT22;11258;52.516;13.318;2023-03-20T07:13:51;10.70;99.90
22185;DHT22;11258;52.516;13.318;2023-03-20T07:16:17;10.50;99.90
22185;DHT22;11258;52.516;13.318;2023-03-20T07:18:42;10.50;99.90
22185;DHT22;11258;52.516;13.318;2023-03-20T07:21:08;10.40;99.90
22185;DHT22;11258;52.516;13.318;2023-03-20T07:23:34;10.40;99.90
22185;DHT22;11258;52.516;13.318;2023-03-20T07:25:59;10.50;99.90
22185;DHT22;11258;52.516;13.318;2023-03-20T07:28:25;10.60;99.90
22185;DHT22;11258;52.516;13.318;2023-03-20T07:30:51;10.50;99.90
22185;DHT22;11258;52.516;13.318;2023-03-20T07:33:17;10.40;99.90
22185;DHT22;11258;52.516;13.318;2023-03-20T07:35:43;10.40;99.90
22185;DHT22;11258;52.516;13.318;2023-03-20T07:38:08;10.40;99.90
22185;DHT22;11258;52.516;13.318;2023-03-20T07:40:34;10.30;99.90
22185;DHT22;11258;52.516;13.318;2023-03-20T07:43:00;10.40;99.90
22185;DHT22;11258;52.516;13.318;2023-03-20T07:45:25;10.40;99.90
22185;DHT22;11258;52.516;13.318;2023-03-20T07:47:51;10.50;99.90
22185;DHT22;11258;52.516;13.318;2023-03-20T07:50:17;10.60;99.90
22185;DHT22;11258;52.516;13.318;2023-03-20T07:52:49;10.70;99.90
22185;DHT22;11258;52.516;13.318;2023-03-20T07:55:16;10.90;99.90
22185;DHT22;11258;52.516;13.318;2023-03-20T07:57:42;11.00;99.90
22185;DHT22;11258;52.516;13.318;2023-03-20T08:00:09;11.10;99.90
22185;DHT22;11258;52.516;13.318;2023-03-20T08:02:35;11.10;99.90
22185;DHT22;11258;52.516;13.318;2023-03-20T08:05:00;11.10;99.90
22185;DHT22;11258;52.516;13.318;2023-03-20T08:07:26;11.10;99.90
22185;DHT22;11258;52.516;13.318;2023-03-20T08:09:54;11.20;99.90
22185;DHT22;11258;52.516;13.318;2023-03-20T08:12:20;11.00;99.90
22185;DHT22;11258;52.516;13.318;2023-03-20T08:14:46;10.90;99.90
22185;DHT22;11258;52.516;13.318;2023-03-20T08:17:12;10.90;99.90
22185;DHT22;11258;52.516;13.318;2023-03-20T08:19:37;11.00;99.90
22185;DHT22;11258;52.516;13.318;2023-03-20T08:22:03;11.00;99.90
22185;DHT22;11258;52.516;13.318;2023-03-20T08:24:29;10.80;99.90
22185;DHT22;11258;52.516;13.318;2023-03-20T08:26:55;10.80;99.90
22185;DHT22;11258;52.516;13.318;2023-03-20T08:29:21;10.70;99.90
22185;DHT22;11258;52.516;13.318;2023-03-20T08:31:46;10.70;99.90
22185;DHT22;11258;52.516;13.318;2023-03-20T08:34:12;10.80;99.90
22185;DHT22;11258;52.516;13.318;2023-03-20T08:36:38;11.00;99.90
22185;DHT22;11258;52.516;13.318;2023-03-20T08:39:06;11.00;99.90
22185;DHT22;11258;52.516;13.318;2023-03-20T08:41:33;11.30;99.90
22185;DHT22;11258;52.516;13.318;2023-03-20T08:43:59;11.90;99.90
22185;DHT22;11258;52.516;13.318;2023-03-20T08:46:25;12.50;99.90
22185;DHT22;11258;52.516;13.318;2023-03-20T08:48:54;13.40;99.90
22185;DHT22;11258;52.516;13.318;2023-03-20T08:51:20;14.10;99.90
22185;DHT22;11258;52.516;13.318;2023-03-20T08:53:45;14.20;99.90
22185;DHT22;11258;52.516;13.318;2023-03-20T08:56:11;14.50;99.90
22185;DHT22;11258;52.516;13.318;2023-03-20T08:58:37;14.20;99.90
22185;DHT22;11258;52.516;13.318;2023-03-20T09:01:07;14.20;99.90
22185;DHT22;11258;52.516;13.318;2023-03-20T09:03:33;13.90;99.90
22185;DHT22;11258;52.516;13.318;2023-03-20T09:06:00;14.00;99.90
22185;DHT22;11258;52.516;13.318;2023-03-20T09:08:25;14.00;99.90
22185;DHT22;11258;52.516;13.318;2023-03-20T09:10:51;13.90;99.90
22185;DHT22;11258;52.516;13.318;2023-03-20T09:13:17;13.90;99.90
22185;DHT22;11258;52.516;13.318;2023-03-20T09:15:43;13.80;99.90
22185;DHT22;11258;52.516;13.318;2023-03-20T09:18:08;13.70;99.90
22185;DHT22;11258;52.516;13.318;2023-03-20T09:20:34;13.70;99.90
22185;DHT22;11258;52.516;13.318;2023-03-20T09:22:59;13.60;99.90
22185;DHT22;11258;52.516;13.318;2023-03-20T09:25:25;13.60;99.90
22185;DHT22;11258;52.516;13.318;2023-03-20T09:27:54;13.60;99.90
22185;DHT22;11258;52.516;13.318;2023-03-20T09:30:21;13.50;99.90
22185;DHT22;11258;52.516;13.318;2023-03-20T09:32:48;13.50;99.90
22185;DHT22;11258;52.516;13.318;2023-03-20T09:35:14;13.40;99.90
22185;DHT22;11258;52.516;13.318;2023-03-20T09:37:40;13.30;99.90
22185;DHT22;11258;52.516;13.318;2023-03-20T09:40:06;13.30;99.90
22185;DHT22;11258;52.516;13.318;2023-03-20T09:42:50;13.40;99.90
22185;DHT22;11258;52.516;13.318;2023-03-20T09:48:22;13.90;99.90
22185;DHT22;11258;52.516;13.318;2023-03-20T09:51:11;14.10;99.90
22185;DHT22;11258;52.516;13.318;2023-03-20T09:53:43;13.90;99.90
22185;DHT22;11258;52.516;13.318;2023-03-20T09:56:20;13.60;99.90
22185;DHT22;11258;52.516;13.318;2023-03-20T09:58:56;13.40;99.90
22185;DHT22;11258;52.516;13.318;2023-03-20T10:01:26;13.10;99.90
22185;DHT22;11258;52.516;13.318;2023-03-20T10:04:05;13.10;99.90
22185;DHT22;11258;52.516;13.318;2023-03-20T10:06:33;13.10;99.90
22185;DHT22;11258;52.516;13.318;2023-03-20T10:08:59;13.10;99.90
22185;DHT22;11258;52.516;13.318;2023-03-20T10:19:44;12.80;99.90
22185;DHT22;11258;52.516;13.318;2023-03-20T10:25:15;12.70;99.90
22185;DHT22;11258;52.516;13.318;2023-03-20T10:27:46;12.50;99.90
22185;DHT22;11258;52.516;13.318;2023-03-20T10:38:14;12.70;99.90
22185;DHT22;11258;52.516;13.318;2023-03-20T10:40:42;12.70;99.90
22185;DHT22;11258;52.516;13.318;2023-03-20T10:43:19;12.70;99.90
22185;DHT22;11258;52.516;13.318;2023-03-20T10:45:48;12.90;99.90
22185;DHT22;11258;52.516;13.318;2023-03-20T10:48:45;12.90;99.90
22185;DHT22;11258;52.516;13.318;2023-03-20T10:51:15;13.00;99.90
22185;DHT22;11258;52.516;13.318;2023-03-20T10:54:02;12.90;99.90
22185;DHT22;11258;52.516;13.318;2023-03-20T10:56:35;13.00;99.90
22185;DHT22;11258;52.516;13.318;2023-03-20T10:59:33;12.80;99.90
22185;DHT22;11258;52.516;13.318;2023-03-20T11:02:01;12.80;99.90
22185;DHT22;11258;52.516;13.318;2023-03-20T11:04:26;12.90;99.90
22185;DHT22;11258;52.516;13.318;2023-03-20T11:09:39;13.20;99.90
22185;DHT22;11258;52.516;13.318;2023-03-20T11:12:11;13.30;99.90
22185;DHT22;11258;52.516;13.318;2023-03-20T11:14:40;13.30;99.90
22185;DHT22;11258;52.516;13.318;2023-03-20T11:17:06;13.40;99.90
22185;DHT22;11258;52.516;13.318;2023-03-20T11:19:37;13.30;99.90
22185;DHT22;11258;52.516;13.318;2023-03-20T11:27:09;13.50;99.90
22185;DHT22;11258;52.516;13.318;2023-03-20T11:29:35;13.40;99.90
22185;DHT22;11258;52.516;13.318;2023-03-20T11:34:35;13.60;99.90
22185;DHT22;11258;52.516;13.318;2023-03-20T11:37:06;13.60;99.90
22185;DHT22;11258;52.516;13.318;2023-03-20T11:39:53;13.40;99.90
22185;DHT22;11258;52.516;13.318;2023-03-20T11:42:25;13.50;99.90
22185;DHT22;11258;52.516;13.318;2023-03-20T11:45:04;13.40;99.90
22185;DHT22;11258;52.516;13.318;2023-03-20T11:47:33;13.50;99.90
22185;DHT22;11258;52.516;13.318;2023-03-20T11:50:02;13.50;99.90
22185;DHT22;11258;52.516;13.318;2023-03-20T11:52:32;13.40;99.90
22185;DHT22;11258;52.516;13.318;2023-03-20T11:55:01;13.40;99.90
22185;DHT22;11258;52.516;13.318;2023-03-20T11:57:39;13.40;99.90
22185;DHT22;11258;52.516;13.318;2023-03-20T12:00:24;13.40;99.90
22185;DHT22;11258;52.516;13.318;2023-03-20T12:02:50;13.40;99.90
22185;DHT22;11258;52.516;13.318;2023-03-20T12:05:34;13.40;99.90
22185;DHT22;11258;52.516;13.318;2023-03-20T12:08:23;13.40;99.90
22185;DHT22;11258;52.516;13.318;2023-03-20T12:10:53;13.20;99.90
22185;DHT22;11258;52.516;13.318;2023-03-20T12:13:26;13.00;99.90
22185;DHT22;11258;52.516;13.318;2023-03-20T12:15:58;12.90;99.90
22185;DHT22;11258;52.516;13.318;2023-03-20T12:18:34;12.90;99.90
22185;DHT22;11258;52.516;13.318;2023-03-20T12:21:14;13.00;99.90
22185;DHT22;11258;52.516;13.318;2023-03-20T12:24:00;12.90;99.90
22185;DHT22;11258;52.516;13.318;2023-03-20T12:26:35;12.90;99.90
22185;DHT22;11258;52.516;13.318;2023-03-20T12:31:45;13.00;99.90
22185;DHT22;11258;52.516;13.318;2023-03-20T12:34:23;13.00;99.90
22185;DHT22;11258;52.516;13.318;2023-03-20T12:36:51;13.00;99.90
22185;DHT22;11258;52.516;13.318;2023-03-20T12:39:23;13.10;99.90
22185;DHT22;11258;52.516;13.318;2023-03-20T12:55:57;13.00;99.90
22185;DHT22;11258;52.516;13.318;2023-03-20T13:01:11;13.20;99.90
22185;DHT22;11258;52.516;13.318;2023-03-20T13:06:52;13.20;99.90
22185;DHT22;11258;52.516;13.318;2023-03-20T13:09:25;13.20;99.90
22185;DHT22;11258;52.516;13.318;2023-03-20T13:17:00;12.90;99.90
22185;DHT22;11258;52.516;13.318;2023-03-20T13:25:35;13.10;99.90
22185;DHT22;11258;52.516;13.318;2023-03-20T13:34:10;13.40;99.90
22185;DHT22;11258;52.516;13.318;2023-03-20T13:37:20;13.40;99.90
22185;DHT22;11258;52.516;13.318;2023-03-20T13:40:21;13.40;99.90
22185;DHT22;11258;52.516;13.318;2023-03-20T13:43:00;13.40;99.90
22185;DHT22;11258;52.516;13.318;2023-03-20T13:45:34;13.50;99.90
22185;DHT22;11258;52.516;13.318;2023-03-20T13:48:31;13.70;99.90
22185;DHT22;11258;52.516;13.318;2023-03-20T13:56:43;13.80;99.90
22185;DHT22;11258;52.516;13.318;2023-03-20T14:05:11;13.30;99.90
22185;DHT22;11258;52.516;13.318;2023-03-20T14:07:42;13.20;99.90
22185;DHT22;11258;52.516;13.318;2023-03-20T14:12:54;12.90;99.90
22185;DHT22;11258;52.516;13.318;2023-03-20T14:15:20;12.90;99.90
22185;DHT22;11258;52.516;13.318;2023-03-20T14:17:49;13.00;99.90
22185;DHT22;11258;52.516;13.318;2023-03-20T14:20:30;12.90;99.90
22185;DHT22;11258;52.516;13.318;2023-03-20T14:22:56;12.90;99.90
22185;DHT22;11258;52.516;13.318;2023-03-20T14:25:22;12.90;99.90
22185;DHT22;11258;52.516;13.318;2023-03-20T14:44:11;12.50;99.90
22185;DHT22;11258;52.516;13.318;2023-03-20T14:46:50;12.50;99.90
22185;DHT22;11258;52.516;13.318;2023-03-20T14:49:32;12.40;99.90
22185;DHT22;11258;52.516;13.318;2023-03-20T14:57:49;12.50;99.90
22185;DHT22;11258;52.516;13.318;2023-03-20T15:03:10;12.40;99.90
22185;DHT22;11258;52.516;13.318;2023-03-20T15:05:38;12.40;99.90
22185;DHT22;11258;52.516;13.318;2023-03-20T15:08:11;12.40;99.90
22185;DHT22;11258;52.516;13.318;2023-03-20T15:10:46;12.50;99.90
22185;DHT22;11258;52.516;13.318;2023-03-20T15:13:14;12.50;99.90
22185;DHT22;11258;52.516;13.318;2023-03-20T15:15:52;12.50;99.90
22185;DHT22;11258;52.516;13.318;2023-03-20T15:18:20;12.60;99.90
22185;DHT22;11258;52.516;13.318;2023-03-20T15:20:46;12.60;99.90
22185;DHT22;11258;52.516;13.318;2023-03-20T15:23:13;12.70;99.90
22185;DHT22;11258;52.516;13.318;2023-03-20T15:25:43;12.80;99.90
22185;DHT22;11258;52.516;13.318;2023-03-20T15:28:23;12.80;99.90
22185;DHT22;11258;52.516;13.318;2023-03-20T15:30:51;12.70;99.90
22185;DHT22;11258;52.516;13.318;2023-03-20T15:33:28;12.70;99.90
22185;DHT22;11258;52.516;13.318;2023-03-20T15:35:56;12.70;99.90
22185;DHT22;11258;52.516;13.318;2023-03-20T15:38:22;12.60;99.90
22185;DHT22;11258;52.516;13.318;2023-03-20T15:40:51;12.60;99.90
22185;DHT22;11258;52.516;13.318;2023-03-20T15:43:23;12.50;99.90
22185;DHT22;11258;52.516;13.318;2023-03-20T15:45:50;12.50;99.90
22185;DHT22;11258;52.516;13.318;2023-03-20T15:48:20;12.50;99.90
22185;DHT22;11258;52.516;13.318;2023-03-20T15:50:54;12.50;99.90
22185;DHT22;11258;52.516;13.318;2023-03-20T15:53:28;12.50;99.90
22185;DHT22;11258;52.516;13.318;2023-03-20T15:56:12;12.40;99.90
22185;DHT22;11258;52.516;13.318;2023-03-20T15:58:40;12.50;99.90
22185;DHT22;11258;52.516;13.318;2023-03-20T16:01:06;12.50;99.90
22185;DHT22;11258;52.516;13.318;2023-03-20T16:03:35;12.40;99.90
22185;DHT22;11258;52.516;13.318;2023-03-20T16:06:05;12.40;99.90
22185;DHT22;11258;52.516;13.318;2023-03-20T16:08:33;12.40;99.90
22185;DHT22;11258;52.516;13.318;2023-03-20T16:11:01;12.40;99.90
22185;DHT22;11258;52.516;13.318;2023-03-20T16:13:32;12.40;99.90
22185;DHT22;11258;52.516;13.318;2023-03-20T16:16:01;12.40;99.90
22185;DHT22;11258;52.516;13.318;2023-03-20T16:18:29;12.30;99.90
22185;DHT22;11258;52.516;13.318;2023-03-20T16:21:01;12.40;99.90
22185;DHT22;11258;52.516;13.318;2023-03-20T16:23:40;12.30;99.90
22185;DHT22;11258;52.516;13.318;2023-03-20T16:26:08;12.30;99.90
22185;DHT22;11258;52.516;13.318;2023-03-20T16:28:37;12.30;99.90
22185;DHT22;11258;52.516;13.318;2023-03-20T16:31:16;12.30;99.90
22185;DHT22;11258;52.516;13.318;2023-03-20T16:33:42;12.20;99.90
22185;DHT22;11258;52.516;13.318;2023-03-20T16:36:15;12.10;99.90
22185;DHT22;11258;52.516;13.318;2023-03-20T16:39:35;12.10;99.90
22185;DHT22;11258;52.516;13.318;2023-03-20T16:41:43;12.00;99.90
22185;DHT22;11258;52.516;13.318;2023-03-20T16:51:58;11.90;99.90
22185;DHT22;11258;52.516;13.318;2023-03-20T16:54:27;11.90;99.90
22185;DHT22;11258;52.516;13.318;2023-03-20T16:56:54;11.90;99.90
22185;DHT22;11258;52.516;13.318;2023-03-20T16:59:24;11.90;99.90
22185;DHT22;11258;52.516;13.318;2023-03-20T17:01:50;11.90;99.90
22185;DHT22;11258;52.516;13.318;2023-03-20T17:04:35;11.90;99.90
22185;DHT22;11258;52.516;13.318;2023-03-20T17:07:13;11.90;99.90
22185;DHT22;11258;52.516;13.318;2023-03-20T17:12:17;11.90;99.90
22185;DHT22;11258;52.516;13.318;2023-03-20T17:14:43;11.80;99.90
22185;DHT22;11258;52.516;13.318;2023-03-20T17:17:14;11.80;99.90
22185;DHT22;11258;52.516;13.318;2023-03-20T17:19:40;11.70;99.90
22185;DHT22;11258;52.516;13.318;2023-03-20T17:22:20;11.70;99.90
22185;DHT22;11258;52.516;13.318;2023-03-20T17:24:46;11.70;99.90
22185;DHT22;11258;52.516;13.318;2023-03-20T17:27:13;11.70;99.90
22185;DHT22;11258;52.516;13.318;2023-03-20T17:29:40;11.70;99.90
22185;DHT22;11258;52.516;13.318;2023-03-20T17:32:14;11.60;99.90
22185;DHT22;11258;52.516;13.318;2023-03-20T17:34:40;11.60;99.90
22185;DHT22;11258;52.516;13.318;2023-03-20T17:37:11;11.50;99.90
22185;DHT22;11258;52.516;13.318;2023-03-20T17:39:37;11.60;99.90
22185;DHT22;11258;52.516;13.318;2023-03-20T17:42:15;11.50;99.90
22185;DHT22;11258;52.516;13.318;2023-03-20T17:44:43;11.60;99.90
22185;DHT22;11258;52.516;13.318;2023-03-20T17:47:14;11.50;99.90
22185;DHT22;11258;52.516;13.318;2023-03-20T17:49:40;11.50;99.90
22185;DHT22;11258;52.516;13.318;2023-03-20T17:52:13;11.50;99.90
22185;DHT22;11258;52.516;13.318;2023-03-20T17:54:39;11.50;99.90
22185;DHT22;11258;52.516;13.318;2023-03-20T17:57:09;11.50;99.90
22185;DHT22;11258;52.516;13.318;2023-03-20T17:59:36;11.60;99.90
22185;DHT22;11258;52.516;13.318;2023-03-20T18:02:01;11.50;99.90
22185;DHT22;11258;52.516;13.318;2023-03-20T18:04:27;11.50;99.90
22185;DHT22;11258;52.516;13.318;2023-03-20T18:06:53;11.50;99.90
22185;DHT22;11258;52.516;13.318;2023-03-20T18:09:18;11.40;99.90
22185;DHT22;11258;52.516;13.318;2023-03-20T18:11:45;11.30;99.90
22185;DHT22;11258;52.516;13.318;2023-03-20T18:14:10;11.30;99.90
22185;DHT22;11258;52.516;13.318;2023-03-20T18:16:36;11.30;99.90
22185;DHT22;11258;52.516;13.318;2023-03-20T18:19:02;11.30;99.90